createdAt,value
2022-09-04T00:01:21.958Z,98.00
2022-09-04T00:11:45.635Z,94.97
2022-09-04T00:21:55.343Z,101.33
2022-09-04T00:32:11.745Z,102.77
2022-09-04T00:42:43.764Z,93.43
2022-09-04T00:53:38.039Z,96.90
2022-09-04T01:04:19.516Z,97.50
2022-09-04T01:14:40.377Z,95.03
2022-09-04T01:25:05.948Z,95.87
2022-09-04T01:35:24.301Z,98.70
2022-09-04T01:45:47.081Z,94.73
2022-09-04T01:56:04.335Z,96.70
2022-09-04T02:06:18.232Z,99.77
2022-09-04T02:16:39.121Z,95.57
2022-09-04T02:26:50.625Z,98.77
2022-09-04T02:37:02.088Z,100.77
2022-09-04T02:47:19.061Z,100.03
2022-09-04T02:57:40.690Z,98.97
2022-09-04T03:07:52.797Z,96.60
2022-09-04T03:18:07.062Z,103.27
2022-09-04T03:28:33.290Z,103.23
2022-09-04T03:38:50.980Z,95.93
2022-09-04T03:49:14.498Z,99.43
2022-09-04T03:59:33.928Z,99.20
2022-09-04T04:09:56.204Z,98.63
2022-09-04T04:20:22.917Z,96.07
2022-09-04T04:30:30.328Z,89.67
2022-09-04T04:40:53.020Z,95.13
2022-09-04T04:51:14.128Z,93.43
2022-09-04T05:01:42.625Z,95.80
2022-09-04T05:11:56.524Z,94.40
2022-09-04T05:22:13.238Z,99.30
2022-09-04T05:32:26.477Z,96.60
2022-09-04T05:43:01.406Z,93.57
2022-09-04T05:53:56.177Z,91.30
2022-09-04T06:04:37.042Z,93.97
2022-09-04T06:15:05.388Z,93.80
2022-09-04T06:25:43.322Z,92.57
2022-09-04T06:36:35.963Z,92.70
2022-09-04T06:46:46.402Z,92.30
2022-09-04T06:57:15.494Z,92.83
2022-09-04T07:07:30.830Z,91.93
2022-09-04T07:17:42.022Z,94.90
2022-09-04T07:28:08.559Z,98.50
2022-09-04T07:38:22.445Z,95.17
2022-09-04T07:48:36.720Z,91.30
2022-09-04T07:59:21.680Z,95.20
2022-09-04T08:09:44.435Z,94.87
2022-09-04T08:19:58.950Z,104.30
2022-09-04T08:30:08.406Z,113.43
2022-09-04T08:40:39.030Z,110.50
2022-09-04T08:51:34.327Z,108.53
2022-09-04T09:02:14.964Z,109.13
2022-09-04T09:13:13.088Z,113.20
2022-09-04T09:23:20.246Z,109.77
2022-09-04T09:34:10.785Z,111.33
2022-09-04T09:45:11.442Z,104.27
2022-09-04T09:56:04.656Z,104.73
2022-09-04T10:07:10.535Z,105.63
2022-09-04T10:18:33.039Z,100.30
2022-09-04T10:29:28.924Z,99.80
2022-09-04T10:40:07.079Z,101.07
2022-09-04T10:50:49.447Z,102.73
2022-09-04T11:01:30.354Z,100.20
2022-09-04T11:12:09.676Z,102.27
2022-09-04T11:23:03.080Z,100.23
2022-09-04T11:33:57.865Z,103.83
2022-09-04T11:44:45.493Z,102.87
2022-09-04T11:55:26.302Z,99.10
2022-09-04T12:06:00.870Z,106.33
2022-09-04T12:17:15.675Z,110.50
2022-09-04T12:28:02.923Z,110.10
2022-09-04T12:38:29.716Z,107.50
2022-09-04T12:48:46.245Z,122.83
2022-09-04T12:59:19.149Z,104.83
2022-09-04T13:09:34.041Z,106.03
2022-09-04T13:19:48.253Z,105.20
2022-09-04T13:30:08.154Z,104.83
2022-09-04T13:40:25.530Z,107.80
2022-09-04T13:50:36.868Z,104.77
2022-09-04T14:00:47.123Z,104.43
2022-09-04T14:11:22.241Z,103.50
2022-09-04T14:21:45.740Z,106.50
2022-09-04T14:31:59.650Z,106.67
2022-09-04T14:42:22.344Z,105.93
2022-09-04T14:52:36.667Z,104.93
2022-09-04T15:02:47.132Z,106.03
2022-09-04T15:13:11.787Z,104.37
2022-09-04T15:23:24.709Z,106.67
2022-09-04T15:33:30.420Z,102.17
2022-09-04T15:43:41.191Z,105.80
2022-09-04T15:53:55.154Z,107.03
2022-09-04T16:04:12.754Z,104.07
2022-09-04T16:14:25.466Z,101.67
2022-09-04T16:24:36.704Z,104.70
2022-09-04T16:34:49.380Z,100.77
2022-09-04T16:44:59.648Z,102.37
2022-09-04T16:55:12.225Z,102.83
2022-09-04T17:05:28.790Z,105.17
2022-09-04T17:15:44.629Z,97.87
2022-09-04T17:29:14.170Z,103.10
2022-09-04T17:40:38.039Z,102.23
2022-09-04T17:47:21.549Z,98.43
2022-09-04T17:57:46.500Z,96.30
2022-09-04T18:08:07.316Z,97.67
2022-09-04T18:18:24.979Z,102.17
2022-09-04T18:28:40.168Z,98.90
2022-09-04T18:39:08.839Z,101.80
2022-09-04T18:50:44.669Z,97.43
2022-09-04T18:59:53.754Z,96.17
2022-09-04T19:10:24.032Z,95.23
2022-09-04T19:20:46.645Z,100.67
2022-09-04T19:30:56.393Z,101.93
2022-09-04T19:46:04.665Z,97.23
2022-09-04T19:53:24.059Z,99.87
2022-09-04T20:02:31.622Z,98.57
2022-09-04T20:12:42.404Z,97.50
2022-09-04T20:22:51.593Z,102.77
2022-09-04T20:33:03.350Z,102.10
2022-09-04T20:43:21.122Z,104.30
2022-09-04T20:53:36.677Z,101.40
2022-09-04T21:03:56.989Z,96.93
2022-09-04T21:14:06.412Z,104.13
2022-09-04T21:24:55.039Z,94.03
2022-09-04T21:35:08.769Z,95.43
2022-09-04T21:45:38.113Z,95.50
2022-09-04T21:57:49.082Z,98.93
2022-09-04T22:08:02.409Z,100.83
2022-09-04T22:17:36.617Z,99.93
2022-09-04T22:28:31.159Z,98.77
2022-09-04T22:39:20.709Z,99.67
2022-09-04T22:50:02.662Z,94.63
2022-09-04T23:00:12.153Z,92.67
2022-09-04T23:13:50.739Z,95.93
2022-09-04T23:26:38.134Z,96.27
2022-09-04T23:32:13.356Z,93.83
2022-09-04T23:43:07.461Z,94.03
2022-09-04T23:53:27.905Z,95.33
